Allerte
Precipitazioni in corso 

Bologna

Allerta Gelo (░C)  

Nessuna

Allerta Vento (km/h)  

Nessuna

Scarsa VisibilitÓ (m) 

Trevico
0
Gioia del Co
200

Allerta Caldo (░C)  

Nessuna

Allerta Afa (░C-UR)  

Nessuna

Dati e Grafici Climatici 3-7 gg
L'OMTeA propone un elaborazione dei più importanti parametri meteorologici rilevati dalle stazioni che hanno aderito al progetto di monitoraggio. In questa sezione è possibile consultare i dati provenienti dalle centraline, interpretati attraverso output testuale e grafico.
Se vuoi aderire alla rete OMTeA vai alla pagina Info e leggi requisiti e vantaggi.

Stazione di Cefal¨ - www.meteocefalu.altervista.org

Valori rilevati il 17/10/2018 alle ore 22:55

Temperatura atmosferica: 21.9 °C
Pressione atmosferica: 1008.1 mbar
Umidità relativa: 65 %
Intensità e direzione vento: 3.6 Km/h da ENE

Altitudine: 20 metri s.l.m.
Latitudine: 38.02° N
Longitudine: 14.01° E



Entra nella rete OMTeA!. Potrai liberamente usare sul tuo sito questi grafici; info alla pagina Istruzioni.

Ultime 50 rilevazioni
Orario Temp
°C
Rugiada
°C
Prec.
mm
Press.
mbar
Umidità
%
Int. vento
km/h
Dir.
vento
22:55 - 17/10 21.9 15.0 0 1008.10 65 3.6 ENE
22:44 - 17/10 22.4 15.0 0 1008.30 63 3.1 NO
22:29 - 17/10 22.4 15.0 0 1008.10 63 2.8 NE
22:14 - 17/10 22.4 14.8 0 1008.50 62 1.1 SE
21:59 - 17/10 22.3 14.4 0 1008.30 61 4.0 SSO
21:44 - 17/10 22.2 14.6 0 1008.10 62 1.8 NNE
21:29 - 17/10 22.1 15.0 0 1008.10 64 1.8 NE
21:14 - 17/10 22.1 15.0 0 1008.20 64 3.2 SE
20:59 - 17/10 22.1 14.7 0 1008.00 63 6.5 NE
20:44 - 17/10 22.3 14.9 0 1008.00 63 3.5 ENE
20:29 - 17/10 22.1 14.7 0 1007.90 63 5.6 NE
20:14 - 17/10 22.1 14.7 0 1008.00 63 3.4 ENE
19:59 - 17/10 22.2 14.8 0 1008.00 63 5.1 NNE
19:44 - 17/10 22.4 15.5 0 1008.00 65 1.1 NNE
19:29 - 17/10 22.4 16.0 0 1008.10 67 0.8 E
19:14 - 17/10 22.5 16.3 0 1008.10 68 1.0 NE
18:59 - 17/10 22.5 16.3 0 1008.00 68 1.2 ESE
18:44 - 17/10 22.3 16.6 0 1007.90 70 3.1 NO
18:29 - 17/10 22.0 17.6 0 1008.10 76 3.3 ENE
18:14 - 17/10 21.4 17.8 0 1008.00 80 2.6 ENE
17:59 - 17/10 21.4 18.2 0 1008.20 82 4.0 NE
17:44 - 17/10 21.6 18.4 0 1008.10 82 2.0 ENE
17:29 - 17/10 21.8 18.4 0 1008.30 81 1.4 ENE
17:14 - 17/10 22.1 18.7 0 1008.30 81 1.4 NE
16:59 - 17/10 22.3 18.7 0 1008.50 80 3.4 NE
16:44 - 17/10 22.4 18.6 0 1008.40 79 2.3 NE
16:29 - 17/10 22.6 18.8 0 1008.50 79 1.6 E
16:14 - 17/10 22.6 18.6 0 1008.40 78 3.6 ENE
15:59 - 17/10 22.9 18.9 0 1008.50 78 1.7 S
15:44 - 17/10 22.8 18.8 0 1008.80 78 3.2 E
15:29 - 17/10 23.1 18.8 0 1008.80 77 1.9 ENE
15:14 - 17/10 22.9 18.9 0 1008.90 78 2.6 ENE
14:59 - 17/10 23.1 19.0 0 1008.90 78 3.8 ENE
14:44 - 17/10 22.9 19.1 0 1008.80 79 2.9 ENE
14:29 - 17/10 22.9 18.9 0 1008.90 78 3.4 E
14:14 - 17/10 23.1 18.8 0 1009.30 77 2.3 E
13:59 - 17/10 23.1 18.8 0 1009.30 77 1.9 ESE
13:44 - 17/10 23.2 18.9 0 1009.70 77 3.5 ENE
13:29 - 17/10 23.1 18.8 0 1010.10 77 4.2 E
13:14 - 17/10 23.2 18.7 0 1010.50 76 4.0 ENE
12:59 - 17/10 23.2 18.7 0 1010.60 76 2.1 ENE
12:44 - 17/10 23.3 18.8 0 1010.90 76 1.8 E
12:29 - 17/10 22.9 18.6 0 1011.30 77 3.5 ENE
12:14 - 17/10 22.9 18.4 0 1011.10 76 5.2 SE
11:59 - 17/10 23.0 18.7 0 1011.20 77 3.3 ENE
11:44 - 17/10 22.8 18.5 0 1011.00 77 2.7 ENE
11:29 - 17/10 22.8 18.3 0 1011.00 76 0.5 NE
11:14 - 17/10 22.9 18.4 0 1011.10 76 3.7 SE
10:59 - 17/10 22.9 18.2 0 1010.90 75 3.9 ENE
10:44 - 17/10 22.8 17.7 0 1011.00 73 3.3 ENE


   In caso di mancato funzionamento di qualche risorsa, vi preghiamo di segnalarcelo alla pagina Contatti.
© 2018 Osservatorio Meteo OMTeA
Sito di informazione su Meteo, Tempo in atto e Clima in Italia